Time;durP1;ratioP1;P1;durP2;ratioP2;P2;SDS_P1;SDS_P2;PMS_P1;PMS_P2;Temp;Humidity;BMP_temperature;BMP_pressure;BME280_temperature;BME280_humidity;BME280_pressure;Samples;Min_cycle;Max_cycle;Signal;HPM_P1;HPM_P2
2022/05/28 05:40:33;;;;;;;8.43;1.83;;;12.40;99.90;;;;;;7033788;27;20384;-81
2022/05/28 05:43:56;;;;;;;13.63;2.53;;;12.10;99.90;;;;;;7018014;28;20086;-81
2022/05/28 05:47:18;;;;;;;15.60;2.67;;;12.20;99.90;;;;;;7018154;28;20079;-81
2022/05/28 05:50:40;;;;;;;11.55;2.30;;;12.30;98.60;;;;;;7014686;28;20083;-80
2022/05/28 05:54:02;;;;;;;9.10;2.20;;;12.50;99.90;;;;;;7019053;28;20071;-80
2022/05/28 05:57:25;;;;;;;9.10;1.80;;;12.60;98.20;;;;;;7015287;28;20512;-80
2022/05/28 06:00:47;;;;;;;8.00;2.10;;;12.70;96.60;;;;;;7018428;28;20075;-82
2022/05/28 06:04:09;;;;;;;9.90;2.17;;;12.80;97.40;;;;;;7013526;28;20044;-81
2022/05/28 06:07:31;;;;;;;10.27;2.55;;;12.80;97.40;;;;;;7011222;28;20040;-81
2022/05/28 06:10:54;;;;;;;8.37;1.90;;;12.80;97.40;;;;;;7021201;28;20470;-82
2022/05/28 06:14:18;;;;;;;10.88;2.50;;;12.70;97.20;;;;;;7009320;28;20044;-83
2022/05/28 06:17:40;;;;;;;9.48;1.80;;;12.80;97.30;;;;;;7016658;28;20083;-82
2022/05/28 06:21:03;;;;;;;14.52;1.83;;;12.90;97.90;;;;;;7016509;28;20478;-83
2022/05/28 06:24:26;;;;;;;8.57;2.05;;;12.90;97.80;;;;;;7018078;28;20103;-84
2022/05/28 06:27:48;;;;;;;14.35;2.25;;;13.00;98.30;;;;;;7007997;28;20081;-81
2022/05/28 06:31:14;;;;;;;8.53;2.00;;;13.10;96.70;;;;;;7019106;28;20062;-82
2022/05/28 06:34:36;;;;;;;9.73;2.22;;;12.80;95.80;;;;;;7017697;28;20098;-82
2022/05/28 06:37:58;;;;;;;8.07;2.10;;;12.90;96.60;;;;;;7018287;28;20095;-82
2022/05/28 06:41:20;;;;;;;12.27;2.72;;;13.00;96.00;;;;;;7016564;28;20051;-83
2022/05/28 06:44:42;;;;;;;8.65;1.77;;;13.10;94.40;;;;;;7017357;28;20051;-83
2022/05/28 06:48:07;;;;;;;13.48;2.15;;;13.10;95.10;;;;;;7018152;28;20040;-82
2022/05/28 06:51:31;;;;;;;10.85;2.17;;;13.00;95.40;;;;;;7013252;28;20383;-83
2022/05/28 06:54:53;;;;;;;11.93;2.10;;;13.00;94.70;;;;;;7001862;28;20474;-83
2022/05/28 06:58:16;;;;;;;8.87;1.90;;;13.10;95.30;;;;;;6989350;28;20052;-81
2022/05/28 07:01:38;;;;;;;9.48;2.08;;;13.20;94.40;;;;;;6990963;28;20049;-84
2022/05/28 07:05:02;;;;;;;12.27;2.43;;;13.10;93.90;;;;;;6993129;28;20040;-84
2022/05/28 07:08:25;;;;;;;8.88;2.20;;;13.20;93.40;;;;;;7001012;28;20075;-84
2022/05/28 07:11:47;;;;;;;7.05;1.98;;;13.20;94.50;;;;;;6999759;28;20083;-84
2022/05/28 07:15:13;;;;;;;7.47;2.00;;;13.30;93.10;;;;;;6980834;28;20113;-85
2022/05/28 07:18:37;;;;;;;9.02;1.98;;;13.40;93.00;;;;;;6992578;28;20048;-83
2022/05/28 07:22:01;;;;;;;12.75;2.40;;;13.40;92.50;;;;;;6996576;28;20414;-84
2022/05/28 07:25:24;;;;;;;9.05;2.20;;;13.30;92.90;;;;;;6994092;28;20071;-84
2022/05/28 07:28:46;;;;;;;11.80;2.00;;;13.30;91.30;;;;;;6984793;28;20040;-83
2022/05/28 07:32:09;;;;;;;7.43;1.83;;;13.40;92.90;;;;;;6997279;28;20138;-83
2022/05/28 07:35:31;;;;;;;8.55;1.98;;;13.50;93.20;;;;;;6992822;28;20469;-84
2022/05/28 07:38:55;;;;;;;9.85;2.13;;;13.40;91.80;;;;;;7012377;28;20083;-84
2022/05/28 07:42:17;;;;;;;9.18;1.95;;;13.50;93.40;;;;;;7018621;28;20067;-83
2022/05/28 07:45:43;;;;;;;8.18;1.80;;;13.60;91.70;;;;;;7009739;28;20044;-84
2022/05/28 07:49:06;;;;;;;8.68;1.60;;;13.70;92.20;;;;;;7028103;28;20051;-84
2022/05/28 07:52:29;;;;;;;7.40;1.60;;;13.80;91.80;;;;;;6997085;28;20056;-82
2022/05/28 07:55:52;;;;;;;13.53;1.87;;;13.70;91.50;;;;;;6996911;28;20088;-84
2022/05/28 07:59:14;;;;;;;7.15;1.60;;;13.70;90.70;;;;;;6998700;28;20048;-83
2022/05/28 08:02:36;;;;;;;10.00;1.80;;;13.80;89.80;;;;;;6986888;28;20045;-83
2022/05/28 08:05:58;;;;;;;13.93;4.77;;;13.90;88.80;;;;;;6991377;28;20080;-83
2022/05/28 08:09:20;;;;;;;8.30;1.87;;;13.80;90.30;;;;;;6982264;28;20053;-82
2022/05/28 08:12:44;;;;;;;8.30;1.50;;;13.90;86.60;;;;;;6994043;28;20049;-82
2022/05/28 08:16:06;;;;;;;7.25;1.40;;;14.00;86.80;;;;;;6997701;28;20091;-82
2022/05/28 08:19:29;;;;;;;5.20;1.20;;;14.10;84.20;;;;;;6992629;28;20098;-84
2022/05/28 08:26:32;;;;;;;8.18;1.30;;;14.20;82.90;;;;;;6994121;28;20486;-82
2022/05/28 08:29:56;;;;;;;5.53;1.25;;;14.20;78.40;;;;;;6978387;28;20089;-82
2022/05/28 08:33:20;;;;;;;4.95;1.20;;;14.30;79.30;;;;;;6991651;28;20051;-83
2022/05/28 08:36:42;;;;;;;4.82;1.25;;;14.30;81.80;;;;;;6994551;28;20052;-84
2022/05/28 08:40:05;;;;;;;5.93;1.10;;;14.50;84.10;;;;;;6983145;28;20056;-82
2022/05/28 08:43:30;;;;;;;5.15;1.35;;;14.50;77.60;;;;;;6985128;28;20064;-83
2022/05/28 08:46:57;;;;;;;8.68;1.52;;;14.60;79.60;;;;;;6990686;28;20079;-84
2022/05/28 08:50:20;;;;;;;7.20;1.70;;;14.50;77.80;;;;;;6981092;28;20099;-82
2022/05/28 08:53:48;;;;;;;5.70;1.20;;;14.60;77.50;;;;;;6982539;28;20056;-84
2022/05/28 08:57:14;;;;;;;6.13;1.10;;;14.50;76.10;;;;;;6997548;28;20075;-83
2022/05/28 09:00:43;;;;;;;6.95;2.45;;;14.40;76.30;;;;;;6995881;28;20099;-84
2022/05/28 09:04:12;;;;;;;6.75;3.15;;;14.60;77.60;;;;;;6981806;28;20045;-85
2022/05/28 09:07:35;;;;;;;5.85;1.30;;;14.60;74.10;;;;;;6978702;28;20497;-88
2022/05/28 09:11:03;;;;;;;6.53;1.20;;;14.60;74.10;;;;;;6991639;28;20055;-87
2022/05/28 09:14:31;;;;;;;6.22;1.20;;;14.70;73.60;;;;;;6984901;28;20053;-86
2022/05/28 09:17:57;;;;;;;4.60;1.17;;;14.80;72.10;;;;;;6998305;28;20474;-88
2022/05/28 09:21:22;;;;;;;5.85;1.45;;;14.90;73.70;;;;;;6998732;28;20509;-88
2022/05/28 09:24:45;;;;;;;7.95;1.38;;;15.00;74.40;;;;;;6998870;28;20135;-88
2022/05/28 09:28:24;;;;;;;4.10;1.10;;;15.10;75.60;;;;;;6998834;28;20048;-88
2022/05/28 09:31:59;;;;;;;4.50;0.98;;;15.20;71.80;;;;;;6998776;28;20044;-88
2022/05/28 09:35:32;;;;;;;6.50;1.50;;;15.30;73.10;;;;;;6999035;28;20486;-88
2022/05/28 09:39:07;;;;;;;4.78;0.95;;;15.40;70.20;;;;;;6998511;28;20409;-89
2022/05/28 09:42:59;;;;;;;4.05;1.08;;;15.60;69.20;;;;;;6998560;28;20060;-88
2022/05/28 09:46:28;;;;;;;6.95;1.30;;;15.70;69.20;;;;;;6998612;28;20088;-90
2022/05/28 09:49:53;;;;;;;4.07;1.10;;;15.80;69.60;;;;;;6998140;28;20505;-89
2022/05/28 09:57:10;;;;;;;4.68;1.00;;;16.00;66.70;;;;;;6998391;28;20489;-87
2022/05/28 10:00:33;;;;;;;5.50;1.00;;;16.20;66.00;;;;;;6998290;28;20051;-88
2022/05/28 10:07:44;;;;;;;4.57;0.90;;;16.30;66.60;;;;;;6998267;28;20127;-87
2022/05/28 10:11:08;;;;;;;6.68;1.00;;;16.50;65.90;;;;;;6998136;28;20052;-88
2022/05/28 10:14:33;;;;;;;5.40;1.00;;;16.70;63.60;;;;;;6997497;28;20052;-88
2022/05/28 10:17:57;;;;;;;4.32;0.85;;;16.80;63.90;;;;;;6992232;28;20479;-87
2022/05/28 10:21:27;;;;;;;3.97;1.13;;;16.80;62.10;;;;;;6984838;28;20069;-89
2022/05/28 10:24:53;;;;;;;6.53;1.40;;;16.80;62.40;;;;;;6998833;28;20060;-80
2022/05/28 10:28:15;;;;;;;7.65;1.55;;;16.60;62.90;;;;;;6992968;28;20049;-81
2022/05/28 10:31:41;;;;;;;4.38;1.13;;;16.70;63.00;;;;;;7002047;28;20053;-81
2022/05/28 10:35:15;;;;;;;3.78;1.10;;;16.90;61.30;;;;;;7000282;28;20599;-82
2022/05/28 10:38:37;;;;;;;5.22;1.40;;;17.10;61.90;;;;;;6999867;28;20045;-83
2022/05/28 10:41:59;;;;;;;5.95;1.42;;;17.10;61.70;;;;;;7002221;28;20048;-86
2022/05/28 10:45:22;;;;;;;5.40;1.42;;;17.30;63.40;;;;;;7001753;28;20059;-83
2022/05/28 10:49:09;;;;;;;7.38;1.23;;;17.30;62.40;;;;;;6997114;28;20052;-85
2022/05/28 10:52:44;;;;;;;7.10;1.50;;;17.20;64.60;;;;;;6972464;28;20513;-92
2022/05/28 10:56:27;;;;;;;7.30;1.27;;;17.30;62.90;;;;;;6974923;28;20410;-88
2022/05/28 11:00:07;;;;;;;5.07;1.10;;;17.50;58.40;;;;;;6977220;28;20048;-85
2022/05/28 11:04:26;;;;;;;3.88;1.27;;;17.60;58.90;;;;;;6998553;28;20056;-86
2022/05/28 11:07:53;;;;;;;7.28;1.80;;;17.40;61.20;;;;;;6985571;28;20139;-85
2022/05/28 11:11:36;;;;;;;5.50;1.13;;;17.30;60.00;;;;;;6997147;28;20049;-85
2022/05/28 11:15:46;;;;;;;6.03;1.02;;;17.40;60.10;;;;;;6999682;28;20398;-84
2022/05/28 11:19:28;;;;;;;6.43;1.80;;;17.50;59.00;;;;;;6959018;28;20072;-84
2022/05/28 11:23:35;;;;;;;5.80;1.20;;;17.70;60.70;;;;;;7000859;28;20405;-84
2022/05/28 11:27:05;;;;;;;5.75;1.40;;;17.80;60.30;;;;;;6992260;28;20056;-83
2022/05/28 11:30:34;;;;;;;3.75;1.10;;;18.00;60.60;;;;;;6998543;28;20048;-84
2022/05/28 11:34:02;;;;;;;5.03;1.20;;;18.20;59.60;;;;;;7000761;28;20083;-84
2022/05/28 11:37:30;;;;;;;5.38;1.20;;;18.10;58.80;;;;;;6998116;28;20048;-84
2022/05/28 11:41:03;;;;;;;3.83;1.10;;;18.10;58.50;;;;;;6999987;28;20500;-84
2022/05/28 11:44:29;;;;;;;;;;;18.20;60.60;;;;;;6997745;28;20485;-82
2022/05/28 11:47:59;;;;;;;5.03;1.30;;;18.20;61.30;;;;;;6999926;28;20007;-84
2022/05/28 11:51:28;;;;;;;5.93;1.60;;;18.10;59.90;;;;;;6998904;28;20045;-83
2022/05/28 11:54:56;;;;;;;7.10;2.08;;;18.00;60.10;;;;;;6996117;28;20486;-82
2022/05/28 11:58:22;;;;;;;4.13;1.00;;;17.90;61.50;;;;;;6998989;28;20047;-84
2022/05/28 12:01:48;;;;;;;5.70;1.52;;;17.90;60.80;;;;;;6999474;28;20139;-83
2022/05/28 12:05:19;;;;;;;6.72;1.10;;;17.90;61.60;;;;;;6996673;28;20056;-84
2022/05/28 12:08:45;;;;;;;4.78;1.05;;;17.90;58.70;;;;;;6998516;28;20045;-82
2022/05/28 12:12:22;;;;;;;5.63;1.20;;;18.00;58.90;;;;;;6997831;28;20048;-83
2022/05/28 12:15:45;;;;;;;3.85;1.15;;;18.20;58.70;;;;;;6977577;28;20045;-83
2022/05/28 12:19:23;;;;;;;4.80;1.10;;;17.90;56.60;;;;;;6979608;28;20044;-83
2022/05/28 12:22:56;;;;;;;4.28;1.05;;;17.70;55.70;;;;;;6988478;28;20055;-83
2022/05/28 12:26:47;;;;;;;3.72;1.20;;;18.10;57.80;;;;;;6996780;28;20057;-82
2022/05/28 12:30:26;;;;;;;6.25;1.42;;;18.20;56.60;;;;;;6998190;28;20091;-83
2022/05/28 12:33:54;;;;;;;6.38;1.17;;;18.70;55.00;;;;;;6996006;28;20067;-82
2022/05/28 12:37:21;;;;;;;4.88;1.20;;;18.90;55.50;;;;;;6998446;28;20075;-83
2022/05/28 12:40:54;;;;;;;4.78;1.05;;;19.00;53.60;;;;;;6997985;28;20126;-83
2022/05/28 12:44:21;;;;;;;5.03;1.20;;;18.90;53.90;;;;;;6997674;28;20048;-84
2022/05/28 12:47:45;;;;;;;4.65;0.90;;;19.10;52.00;;;;;;6994851;28;20075;-84
2022/05/28 12:51:32;;;;;;;4.45;0.80;;;19.00;52.00;;;;;;6998820;28;20049;-86
2022/05/28 12:55:17;;;;;;;3.88;1.00;;;18.90;53.10;;;;;;6998282;28;20041;-86
2022/05/28 12:58:39;;;;;;;4.80;1.00;;;18.90;53.90;;;;;;6993958;28;20493;-80
2022/05/28 13:02:09;;;;;;;4.70;0.85;;;19.20;51.20;;;;;;6991860;28;20409;-80
2022/05/28 13:05:39;;;;;;;5.70;1.00;;;19.50;52.90;;;;;;6997795;28;20508;-79
2022/05/28 13:09:07;;;;;;;5.38;1.10;;;20.00;53.40;;;;;;6996768;28;20186;-78
2022/05/28 13:12:37;;;;;;;4.70;1.10;;;20.00;53.90;;;;;;6996352;28;20048;-80
2022/05/28 13:16:30;;;;;;;3.95;1.05;;;20.10;52.10;;;;;;6997977;28;20080;-80
2022/05/28 13:20:12;;;;;;;3.63;1.17;;;20.10;48.90;;;;;;6979819;28;20080;-79
2022/05/28 13:24:13;;;;;;;5.95;1.35;;;19.80;49.80;;;;;;6995959;28;20048;-82
2022/05/28 13:28:16;;;;;;;3.33;0.80;;;20.00;49.60;;;;;;6990793;28;20076;-79
2022/05/28 13:31:41;;;;;;;3.95;1.30;;;20.40;49.10;;;;;;6989807;28;20431;-80
2022/05/28 13:35:08;;;;;;;4.93;1.23;;;20.30;51.10;;;;;;6996042;28;20066;-79
2022/05/28 13:38:39;;;;;;;3.05;0.85;;;20.40;49.40;;;;;;6996269;28;20060;-80
2022/05/28 13:42:07;;;;;;;4.22;1.10;;;20.50;49.90;;;;;;6997398;28;20088;-80
2022/05/28 13:45:35;;;;;;;3.42;1.10;;;20.50;49.60;;;;;;6980283;28;20078;-80
2022/05/28 13:49:02;;;;;;;6.43;1.08;;;20.20;49.70;;;;;;6996221;28;20052;-79
2022/05/28 13:52:24;;;;;;;6.43;1.17;;;20.10;49.80;;;;;;6995358;28;20100;-81
2022/05/28 13:55:46;;;;;;;3.90;1.05;;;20.40;49.90;;;;;;6984637;28;20049;-79
2022/05/28 13:59:27;;;;;;;4.40;1.30;;;20.30;50.50;;;;;;6970997;28;20513;-79
2022/05/28 14:03:00;;;;;;;3.75;0.95;;;20.80;50.30;;;;;;6975175;28;20052;-79
2022/05/28 14:06:27;;;;;;;5.88;1.08;;;20.80;47.70;;;;;;6991878;28;20052;-79
2022/05/28 14:09:50;;;;;;;4.38;1.17;;;21.30;48.10;;;;;;7002998;28;20052;-78
2022/05/28 14:13:22;;;;;;;2.97;0.95;;;21.00;46.80;;;;;;7001379;28;20076;-79
2022/05/28 14:16:48;;;;;;;5.53;1.20;;;20.60;48.30;;;;;;7001310;28;20410;-80
2022/05/28 14:20:21;;;;;;;5.20;1.40;;;21.10;47.40;;;;;;6993181;28;20186;-81
2022/05/28 14:23:43;;;;;;;;;;;20.90;47.30;;;;;;7000968;28;20049;-80
2022/05/28 14:27:09;;;;;;;5.63;1.35;;;21.10;47.40;;;;;;7000166;28;20010;-82
2022/05/28 14:30:35;;;;;;;7.38;1.00;;;21.10;47.80;;;;;;6998681;28;20043;-80
2022/05/28 14:33:59;;;;;;;5.32;1.13;;;20.80;47.80;;;;;;7002061;28;20505;-80
2022/05/28 14:37:24;;;;;;;4.28;1.08;;;20.60;49.40;;;;;;7001352;28;20044;-80
2022/05/28 14:40:52;;;;;;;4.95;1.10;;;21.40;49.70;;;;;;7002012;28;20375;-78
2022/05/28 14:44:18;;;;;;;5.07;0.90;;;22.30;49.50;;;;;;7001056;28;20052;-81
2022/05/28 14:47:40;;;;;;;4.90;1.10;;;23.00;45.10;;;;;;6999788;28;20117;-78
2022/05/28 14:51:06;;;;;;;5.57;1.15;;;23.10;42.70;;;;;;7001479;28;20052;-79
2022/05/28 14:54:32;;;;;;;5.13;0.98;;;22.90;43.90;;;;;;7001906;28;20436;-80
2022/05/28 14:58:05;;;;;;;4.53;1.00;;;22.50;45.30;;;;;;6999698;28;20068;-80
2022/05/28 15:01:31;;;;;;;4.68;1.10;;;22.20;44.80;;;;;;7001447;28;20049;-81
2022/05/28 15:05:08;;;;;;;4.72;1.15;;;22.00;45.80;;;;;;6997415;28;20098;-80
2022/05/28 15:08:33;;;;;;;4.38;1.00;;;21.80;46.10;;;;;;7001425;28;20056;-80
2022/05/28 15:12:05;;;;;;;5.72;1.27;;;22.40;46.40;;;;;;7000173;28;20457;-81
2022/05/28 15:15:27;;;;;;;4.43;1.03;;;22.60;45.40;;;;;;6974842;28;20091;-84
2022/05/28 15:18:49;;;;;;;5.00;2.00;;;22.50;44.60;;;;;;7000981;28;20052;-80
2022/05/28 15:22:14;;;;;;;8.13;3.22;;;22.50;45.70;;;;;;7000692;28;20048;-82
2022/05/28 15:25:39;;;;;;;5.45;1.92;;;22.10;44.60;;;;;;7001311;28;20410;-80
2022/05/28 15:29:02;;;;;;;4.47;1.23;;;22.30;45.00;;;;;;7001825;28;20135;-87
2022/05/28 15:32:26;;;;;;;;;;;22.00;46.00;;;;;;7000960;28;20060;-85
2022/05/28 15:39:29;;;;;;;4.63;1.05;;;23.80;45.40;;;;;;7002968;28;20053;-91
2022/05/28 15:42:52;;;;;;;3.72;0.82;;;23.30;43.20;;;;;;7003261;28;20049;-90
2022/05/28 15:46:14;;;;;;;9.57;2.38;;;23.10;44.10;;;;;;7003298;28;20490;-91
2022/05/28 15:49:36;;;;;;;4.40;1.20;;;22.60;45.70;;;;;;6985703;28;20052;-91
2022/05/28 15:52:59;;;;;;;6.20;1.13;;;22.70;46.30;;;;;;7004416;28;20048;-90
2022/05/28 15:56:21;;;;;;;3.92;1.27;;;23.40;45.80;;;;;;7004957;28;20049;-90
2022/05/28 15:59:45;;;;;;;4.38;1.10;;;23.20;45.10;;;;;;7002872;28;20055;-92
2022/05/28 16:03:07;;;;;;;5.68;1.40;;;23.30;44.00;;;;;;7003276;28;20482;-88
2022/05/28 16:06:30;;;;;;;4.57;1.38;;;23.00;46.20;;;;;;6999084;28;20056;-87
2022/05/28 16:09:52;;;;;;;;;;;23.30;44.20;;;;;;7000690;28;20474;-88
2022/05/28 16:13:15;;;;;;;7.32;2.70;;;23.30;45.10;;;;;;6999443;28;19920;-87
2022/05/28 16:16:39;;;;;;;6.40;1.88;;;23.50;45.10;;;;;;6999385;28;20049;-85
2022/05/28 16:20:01;;;;;;;10.13;4.18;;;23.70;45.70;;;;;;6980285;28;20532;-83
2022/05/28 16:23:23;;;;;;;5.80;2.35;;;23.20;45.10;;;;;;6957004;28;20059;-85
2022/05/28 16:26:46;;;;;;;7.28;1.88;;;22.80;46.30;;;;;;6979368;28;20040;-85
2022/05/28 16:30:12;;;;;;;4.50;1.48;;;22.70;46.30;;;;;;7003728;28;20040;-85
2022/05/28 16:33:35;;;;;;;4.88;1.67;;;22.60;46.20;;;;;;6941269;28;20521;-86
2022/05/28 16:36:57;;;;;;;5.25;1.45;;;22.30;47.70;;;;;;6925178;28;20061;-85
2022/05/28 16:40:19;;;;;;;4.95;1.00;;;22.20;47.50;;;;;;6948186;28;20053;-80
2022/05/28 16:43:41;;;;;;;3.67;1.08;;;22.20;47.70;;;;;;6940586;28;20053;-83
2022/05/28 16:47:04;;;;;;;5.13;1.00;;;22.30;47.60;;;;;;6939721;28;20053;-81
2022/05/28 16:50:27;;;;;;;;;;;22.10;48.20;;;;;;6943835;28;20509;-82
2022/05/28 16:53:50;;;;;;;5.55;1.25;;;21.90;47.70;;;;;;6941189;28;19921;-84
2022/05/28 16:57:12;;;;;;;5.47;1.38;;;21.80;45.90;;;;;;6939816;28;20177;-83
2022/05/28 17:00:34;;;;;;;5.63;1.40;;;22.10;46.50;;;;;;6939089;28;20046;-83
2022/05/28 17:03:58;;;;;;;;;;;22.30;47.30;;;;;;6940761;28;20073;-83
2022/05/28 17:07:21;;;;;;;3.67;1.00;;;22.80;45.70;;;;;;6941228;28;20059;-83
2022/05/28 17:10:43;;;;;;;4.55;1.40;;;23.20;45.40;;;;;;6944487;28;20478;-91
2022/05/28 17:14:06;;;;;;;3.05;1.15;;;23.30;44.70;;;;;;6939116;28;20052;-83
2022/05/28 17:17:29;;;;;;;3.72;1.10;;;23.30;44.40;;;;;;6931278;28;20049;-86
2022/05/28 17:20:51;;;;;;;5.43;1.08;;;23.00;44.60;;;;;;6916605;28;20068;-86
2022/05/28 17:24:21;;;;;;;;;;;23.10;44.50;;;;;;6943228;28;20053;-85
2022/05/28 17:27:46;;;;;;;4.45;1.20;;;23.00;46.20;;;;;;6943422;28;19944;-87
2022/05/28 17:31:09;;;;;;;4.28;1.25;;;22.70;47.00;;;;;;6938892;28;20113;-84
2022/05/28 17:34:32;;;;;;;3.33;0.90;;;22.40;46.60;;;;;;6921520;28;20069;-86
2022/05/28 17:37:54;;;;;;;6.13;1.20;;;22.10;47.80;;;;;;6921181;28;20053;-84
2022/05/28 17:41:22;;;;;;;3.83;1.17;;;21.90;47.20;;;;;;6939014;28;20411;-85
2022/05/28 17:44:44;;;;;;;5.25;1.00;;;21.80;47.30;;;;;;6919597;28;20056;-86
2022/05/28 17:48:09;;;;;;;3.95;1.00;;;22.10;47.90;;;;;;6941675;28;20049;-92
2022/05/28 17:51:37;;;;;;;3.15;1.08;;;21.90;47.00;;;;;;6945873;28;20684;-92
2022/05/28 17:54:59;;;;;;;5.07;1.80;;;21.80;48.60;;;;;;6943474;28;20104;-87
2022/05/28 17:58:23;;;;;;;;;;;21.90;47.40;;;;;;6945571;28;20309;-93
2022/05/28 18:01:47;;;;;;;4.82;1.65;;;22.00;46.90;;;;;;6941353;28;19921;-92
2022/05/28 18:05:10;;;;;;;7.50;1.70;;;22.00;47.10;;;;;;6944678;28;20115;-91
2022/05/28 18:08:33;;;;;;;6.28;1.88;;;22.00;47.90;;;;;;6945044;28;20049;-92
2022/05/28 18:11:55;;;;;;;4.78;1.30;;;21.90;48.50;;;;;;6943661;28;20053;-91
2022/05/28 18:15:19;;;;;;;4.70;1.20;;;21.90;48.30;;;;;;6944451;28;20056;-93
2022/05/28 18:18:43;;;;;;;2.20;0.98;;;21.50;47.80;;;;;;6945135;28;20064;-92
2022/05/28 18:22:08;;;;;;;3.83;1.00;;;21.20;46.80;;;;;;6943650;28;20048;-88
2022/05/28 18:25:31;;;;;;;4.13;1.13;;;20.90;46.50;;;;;;6944565;28;20053;-91
2022/05/28 18:28:53;;;;;;;3.28;1.00;;;20.80;47.20;;;;;;6943916;28;20053;-91
2022/05/28 18:32:19;;;;;;;5.05;1.10;;;20.60;47.80;;;;;;6943293;28;20056;-92
2022/05/28 18:35:46;;;;;;;4.40;1.45;;;20.40;49.00;;;;;;6944202;28;20506;-93
2022/05/28 18:39:22;;;;;;;3.22;1.10;;;20.20;49.60;;;;;;6915864;28;20046;-90
2022/05/28 18:42:44;;;;;;;3.40;1.10;;;20.10;50.10;;;;;;6916333;28;20522;-92
2022/05/28 18:46:07;;;;;;;2.72;0.82;;;19.80;50.60;;;;;;6933002;28;20053;-89
2022/05/28 18:49:30;;;;;;;4.32;1.25;;;19.80;51.00;;;;;;6946876;28;20048;-91
2022/05/28 18:54:04;;;;;;;7.47;1.50;;;19.50;50.90;;;;;;6947768;28;20414;-89
2022/05/28 18:56:40;;;;;;;3.03;1.10;;;19.30;51.40;;;;;;6945157;28;20049;-85
2022/05/28 19:00:02;;;;;;;3.10;0.93;;;19.10;51.40;;;;;;6944061;28;20396;-85
2022/05/28 19:03:25;;;;;;;6.28;1.10;;;19.00;52.30;;;;;;6941543;28;20046;-79
2022/05/28 19:06:52;;;;;;;4.57;0.95;;;18.90;52.10;;;;;;6935753;28;20168;-84
2022/05/28 19:10:16;;;;;;;5.63;1.20;;;18.90;53.10;;;;;;6939995;28;20053;-84
2022/05/28 19:13:45;;;;;;;4.25;1.38;;;18.80;52.30;;;;;;6940407;28;20060;-83
2022/05/28 19:17:08;;;;;;;4.88;1.50;;;18.60;53.40;;;;;;6942035;28;20050;-84
2022/05/28 19:20:30;;;;;;;5.20;1.67;;;18.40;53.80;;;;;;6940359;28;20088;-83
2022/05/28 19:23:55;;;;;;;3.83;1.20;;;18.30;55.10;;;;;;6941678;28;20135;-82
2022/05/28 19:27:19;;;;;;;4.30;1.20;;;18.20;56.40;;;;;;6941567;28;20057;-82
2022/05/28 19:30:44;;;;;;;4.65;1.00;;;18.00;57.70;;;;;;6940692;28;20095;-83
2022/05/28 19:34:09;;;;;;;4.78;1.52;;;17.80;60.60;;;;;;6940124;28;20482;-82
2022/05/28 19:37:33;;;;;;;9.40;3.28;;;17.70;61.50;;;;;;6940674;28;20058;-82
2022/05/28 19:41:01;;;;;;;4.82;1.40;;;17.60;62.10;;;;;;6941979;28;20045;-82
2022/05/28 19:44:33;;;;;;;3.63;1.40;;;17.50;62.50;;;;;;6940527;28;20491;-83
2022/05/28 19:48:01;;;;;;;6.35;1.67;;;17.20;63.60;;;;;;6940224;28;20046;-82
2022/05/28 19:51:24;;;;;;;3.53;1.20;;;17.20;64.70;;;;;;6938655;28;20049;-85
2022/05/28 19:54:47;;;;;;;5.35;1.33;;;17.10;65.20;;;;;;6940571;28;20037;-86
2022/05/28 19:58:12;;;;;;;6.88;1.40;;;17.10;65.60;;;;;;6941993;28;20048;-84
2022/05/28 20:01:35;;;;;;;4.82;1.42;;;17.10;64.80;;;;;;6940168;28;20057;-86
2022/05/28 20:04:57;;;;;;;5.63;1.50;;;17.10;64.50;;;;;;6941601;28;20053;-86
2022/05/28 20:08:20;;;;;;;5.65;1.50;;;17.10;65.60;;;;;;6943496;28;20062;-85
2022/05/28 20:11:42;;;;;;;4.53;1.80;;;17.00;66.80;;;;;;6941216;28;20469;-85
2022/05/28 20:15:10;;;;;;;5.50;1.60;;;16.80;67.20;;;;;;6942531;28;20045;-91
2022/05/28 20:18:32;;;;;;;6.35;1.80;;;16.70;68.10;;;;;;6925892;28;20093;-85
2022/05/28 20:21:55;;;;;;;5.55;1.83;;;16.60;69.40;;;;;;6938228;28;20436;-87
2022/05/28 20:25:18;;;;;;;;;;;16.40;69.60;;;;;;6920618;28;20062;-87
2022/05/28 20:28:40;;;;;;;5.22;1.90;;;16.30;70.10;;;;;;6917780;28;20387;-87
2022/05/28 20:32:05;;;;;;;4.53;1.75;;;16.20;70.50;;;;;;6917718;28;20058;-90
2022/05/28 20:35:31;;;;;;;7.00;2.10;;;16.00;70.70;;;;;;6928579;28;20115;-92
2022/05/28 20:38:53;;;;;;;4.40;1.70;;;15.90;72.10;;;;;;6939898;28;20056;-79
2022/05/28 20:42:15;;;;;;;5.27;1.87;;;16.00;72.70;;;;;;6941124;28;20456;-88
2022/05/28 20:45:42;;;;;;;4.25;1.50;;;15.90;72.30;;;;;;6944065;28;20050;-87
2022/05/28 20:49:06;;;;;;;5.20;1.77;;;15.70;73.10;;;;;;6916158;28;20057;-89
2022/05/28 20:52:28;;;;;;;4.65;2.00;;;15.60;74.40;;;;;;6929494;28;20140;-87
2022/05/28 20:55:50;;;;;;;4.40;1.60;;;15.60;75.10;;;;;;6943705;28;20049;-87
2022/05/28 20:59:13;;;;;;;4.53;1.73;;;15.40;75.50;;;;;;6943375;28;20092;-86
2022/05/28 21:02:43;;;;;;;4.13;1.75;;;15.30;76.20;;;;;;6942264;28;20045;-86
2022/05/28 21:06:13;;;;;;;3.60;1.70;;;15.20;75.40;;;;;;6943796;28;20049;-86
2022/05/28 21:09:35;;;;;;;6.00;2.33;;;15.00;77.60;;;;;;6943170;28;20060;-87
2022/05/28 21:12:57;;;;;;;4.90;2.00;;;14.60;78.80;;;;;;6943807;28;20053;-86
2022/05/28 21:16:24;;;;;;;4.07;1.95;;;14.30;80.30;;;;;;6943702;28;20053;-87
2022/05/28 21:19:46;;;;;;;4.60;1.98;;;13.90;83.00;;;;;;6942497;28;20049;-87
2022/05/28 21:23:10;;;;;;;7.03;3.75;;;13.90;81.90;;;;;;6943475;28;20079;-86
2022/05/28 21:30:13;;;;;;;3.60;1.52;;;14.40;82.90;;;;;;6942536;28;20053;-86
2022/05/28 21:33:35;;;;;;;;;;;14.50;82.10;;;;;;6943034;28;20056;-86
2022/05/28 21:36:57;;;;;;;5.50;1.88;;;14.50;82.80;;;;;;6942478;28;19964;-86
2022/05/28 21:40:27;;;;;;;5.43;2.00;;;14.50;82.80;;;;;;6941554;28;20069;-86
2022/05/28 21:43:50;;;;;;;5.45;1.90;;;14.40;83.50;;;;;;6920675;28;20095;-86
2022/05/28 21:47:18;;;;;;;5.85;1.60;;;14.20;84.90;;;;;;6916555;28;20083;-87
2022/05/28 21:50:41;;;;;;;5.28;1.80;;;14.00;86.40;;;;;;6925916;28;20046;-87
2022/05/28 21:54:04;;;;;;;6.72;2.20;;;14.00;88.10;;;;;;6915851;28;20049;-86
2022/05/28 21:57:27;;;;;;;6.25;2.60;;;14.00;88.80;;;;;;6918056;28;20598;-86
2022/05/28 22:01:20;;;;;;;8.05;2.17;;;14.00;90.00;;;;;;6942795;28;20049;-85
2022/05/28 22:04:44;;;;;;;7.18;2.53;;;14.10;90.60;;;;;;6942948;28;20053;-86
2022/05/28 22:08:06;;;;;;;6.10;2.90;;;14.10;90.70;;;;;;6941469;28;20075;-85
2022/05/28 22:11:29;;;;;;;10.15;3.05;;;14.00;90.70;;;;;;6941640;28;20041;-85
2022/05/28 22:14:52;;;;;;;6.85;2.65;;;13.50;91.70;;;;;;6942949;28;20061;-86
2022/05/28 22:18:15;;;;;;;5.13;2.53;;;13.30;92.70;;;;;;6941814;28;20080;-86
2022/05/28 22:21:37;;;;;;;6.53;2.35;;;13.40;93.20;;;;;;6945657;28;20052;-85
2022/05/28 22:25:01;;;;;;;5.20;2.00;;;13.50;92.80;;;;;;6937289;28;20056;-86
2022/05/28 22:28:23;;;;;;;5.72;2.85;;;13.50;91.90;;;;;;6947257;28;20111;-87
2022/05/28 22:31:47;;;;;;;6.67;2.77;;;13.50;92.20;;;;;;6946697;28;20375;-85
2022/05/28 22:35:12;;;;;;;6.55;2.50;;;13.40;92.70;;;;;;6947737;28;20081;-86
2022/05/28 22:38:34;;;;;;;5.45;2.10;;;13.40;93.00;;;;;;6947267;28;20101;-87
2022/05/28 22:41:56;;;;;;;7.30;2.90;;;13.40;93.20;;;;;;6946471;28;20050;-85
2022/05/28 22:45:20;;;;;;;5.83;3.10;;;13.40;93.60;;;;;;6947413;28;20053;-85
2022/05/28 22:48:45;;;;;;;6.82;3.45;;;13.30;93.50;;;;;;6946077;28;20095;-86
2022/05/28 22:52:10;;;;;;;4.95;2.75;;;13.20;94.00;;;;;;6945387;28;20487;-86
2022/05/28 22:55:32;;;;;;;5.63;2.80;;;13.30;94.30;;;;;;6947321;28;20053;-86
2022/05/28 22:58:54;;;;;;;6.20;3.20;;;13.40;94.10;;;;;;6946455;28;20042;-86
2022/05/28 23:02:16;;;;;;;5.80;3.30;;;13.40;94.20;;;;;;6946264;28;20054;-86
2022/05/28 23:05:44;;;;;;;8.05;3.78;;;13.30;93.90;;;;;;6945985;28;20054;-85
2022/05/28 23:09:06;;;;;;;8.98;4.65;;;13.20;94.20;;;;;;6946521;28;20049;-86
2022/05/28 23:12:28;;;;;;;18.80;9.83;;;13.10;94.30;;;;;;6945710;28;20049;-86
2022/05/28 23:15:52;;;;;;;16.63;7.63;;;13.10;94.60;;;;;;6947122;28;20056;-87
2022/05/28 23:19:17;;;;;;;10.45;5.10;;;13.10;94.60;;;;;;6945742;28;20046;-86
2022/05/28 23:26:21;;;;;;;10.20;5.72;;;12.90;95.00;;;;;;6946925;28;20045;-86
2022/05/28 23:29:43;;;;;;;8.60;4.47;;;12.70;95.50;;;;;;6944887;28;20641;-88
2022/05/28 23:33:06;;;;;;;8.48;4.60;;;12.80;95.70;;;;;;6935023;28;20084;-87
2022/05/28 23:36:35;;;;;;;10.00;5.22;;;12.70;95.60;;;;;;6945542;28;20073;-86
2022/05/28 23:39:58;;;;;;;8.02;4.30;;;12.60;96.00;;;;;;6945521;28;20403;-86
2022/05/28 23:43:20;;;;;;;7.15;4.38;;;12.50;96.10;;;;;;6946280;28;20394;-86
2022/05/28 23:46:45;;;;;;;5.90;3.43;;;12.50;96.10;;;;;;6944535;28;20482;-87
2022/05/28 23:50:13;;;;;;;6.30;3.15;;;12.40;96.20;;;;;;6945678;28;20057;-87
2022/05/28 23:53:39;;;;;;;7.45;3.55;;;12.40;96.20;;;;;;6930165;28;20056;-87
2022/05/28 23:57:06;;;;;;;7.28;3.10;;;12.20;96.70;;;;;;6932700;28;20061;-86
